Time;durP1;ratioP1;P1;durP2;ratioP2;P2;SDS_P1;SDS_P2;PMS_P1;PMS_P2;Temp;Humidity;BMP_temperature;BMP_pressure;BME280_temperature;BME280_humidity;BME280_pressure;Samples;Min_cycle;Max_cycle;Signal;HPM_P1;HPM_P2
2022/09/30 00:02:22;;;;;;;0.00;0.00;;;8.70;99.90;;;;;;5070781;28;20084;-71
2022/09/30 00:04:48;;;;;;;0.10;0.10;;;8.70;99.90;;;;;;5065738;28;20035;-71
2022/09/30 00:07:14;;;;;;;0.43;0.10;;;8.60;99.90;;;;;;5095084;27;20082;-72
2022/09/30 00:09:40;;;;;;;0.20;0.15;;;8.50;99.90;;;;;;5094736;27;20032;-71
2022/09/30 00:12:06;;;;;;;0.22;0.15;;;8.50;99.90;;;;;;5055656;28;20043;-71
2022/09/30 00:14:32;;;;;;;0.05;0.05;;;8.50;99.90;;;;;;5050388;28;20937;-71
2022/09/30 00:16:58;;;;;;;0.25;0.10;;;8.50;99.90;;;;;;5091035;27;20040;-71
2022/09/30 00:19:24;;;;;;;0.20;0.20;;;8.50;99.90;;;;;;5058892;28;20051;-71
2022/09/30 00:21:49;;;;;;;0.25;0.10;;;8.50;99.90;;;;;;5098469;27;20406;-71
2022/09/30 00:24:15;;;;;;;0.57;0.20;;;8.40;99.90;;;;;;5072989;28;20122;-71
2022/09/30 00:26:41;;;;;;;0.22;0.10;;;8.40;99.90;;;;;;5058093;28;20072;-71
2022/09/30 00:29:08;;;;;;;0.43;0.20;;;8.40;99.90;;;;;;5057164;28;20047;-71
2022/09/30 00:31:35;;;;;;;0.38;0.22;;;8.40;99.90;;;;;;5063118;28;20064;-71
2022/09/30 00:34:07;;;;;;;0.25;0.10;;;8.30;99.90;;;;;;5057586;28;20029;-71
2022/09/30 00:36:42;;;;;;;1.00;0.40;;;8.30;99.90;;;;;;5059198;28;20049;-71
2022/09/30 00:39:15;;;;;;;0.60;0.30;;;8.30;99.90;;;;;;5070604;28;20040;-71
2022/09/30 00:41:41;;;;;;;0.85;0.47;;;8.30;99.90;;;;;;5048950;28;20394;-71
2022/09/30 00:44:44;;;;;;;1.33;0.57;;;8.30;99.90;;;;;;5088178;27;20032;-71
2022/09/30 00:47:31;;;;;;;1.13;0.40;;;8.30;99.90;;;;;;5062809;28;20514;-71
2022/09/30 00:50:05;;;;;;;0.93;0.40;;;8.30;99.90;;;;;;5078194;28;20037;-71
2022/09/30 00:52:32;;;;;;;0.70;0.50;;;8.30;99.90;;;;;;5051606;28;20276;-71
2022/09/30 00:55:03;;;;;;;0.43;0.30;;;8.30;99.90;;;;;;5063041;28;20092;-71
2022/09/30 00:57:29;;;;;;;0.77;0.50;;;8.30;99.90;;;;;;5060575;28;20037;-71
2022/09/30 00:59:55;;;;;;;0.60;0.28;;;8.20;99.90;;;;;;5086585;28;20036;-71
2022/09/30 01:02:20;;;;;;;0.47;0.30;;;8.20;99.90;;;;;;5063003;28;20036;-71
2022/09/30 01:04:46;;;;;;;1.13;0.40;;;8.20;99.90;;;;;;5050790;28;20171;-71
2022/09/30 01:07:13;;;;;;;0.77;0.40;;;8.20;99.90;;;;;;5063945;28;20052;-71
2022/09/30 01:09:41;;;;;;;0.75;0.30;;;8.20;99.90;;;;;;5076927;28;20073;-71
2022/09/30 01:12:19;;;;;;;0.65;0.40;;;8.10;99.90;;;;;;5100175;27;20040;-71
2022/09/30 01:14:47;;;;;;;0.75;0.30;;;8.10;99.90;;;;;;5055351;28;20028;-71
2022/09/30 01:17:45;;;;;;;0.60;0.30;;;8.10;99.90;;;;;;5067283;28;20468;-71
2022/09/30 01:20:40;;;;;;;1.30;0.77;;;8.10;99.90;;;;;;5062502;28;20048;-71
2022/09/30 01:23:21;;;;;;;1.20;0.70;;;8.00;99.90;;;;;;5055947;28;20055;-71
2022/09/30 01:26:10;;;;;;;0.60;0.50;;;8.00;99.90;;;;;;5067011;28;20068;-71
2022/09/30 01:28:35;;;;;;;1.30;0.60;;;8.00;99.90;;;;;;5056260;28;20562;-71
2022/09/30 01:31:10;;;;;;;1.05;0.63;;;8.00;99.90;;;;;;5061747;28;20044;-71
2022/09/30 01:34:00;;;;;;;1.38;0.60;;;8.00;99.90;;;;;;5065734;28;20036;-71
2022/09/30 01:36:37;;;;;;;1.42;0.60;;;8.00;99.90;;;;;;5092951;27;20040;-71
2022/09/30 01:39:08;;;;;;;1.05;0.60;;;8.00;99.90;;;;;;5091433;27;20093;-71
2022/09/30 01:41:43;;;;;;;0.82;0.52;;;8.00;99.90;;;;;;5060253;28;20052;-71
2022/09/30 01:44:24;;;;;;;0.98;0.60;;;8.00;99.90;;;;;;5061270;28;20106;-71
2022/09/30 01:47:16;;;;;;;1.45;0.70;;;7.90;99.90;;;;;;5040335;28;20506;-71
2022/09/30 01:49:49;;;;;;;1.85;0.75;;;7.90;99.90;;;;;;5062662;28;20123;-71
2022/09/30 01:52:48;;;;;;;0.98;0.47;;;7.90;99.90;;;;;;5089729;27;20413;-71
2022/09/30 01:55:23;;;;;;;1.02;0.65;;;7.90;99.90;;;;;;5059941;28;20068;-71
2022/09/30 01:58:03;;;;;;;0.63;0.43;;;7.90;99.90;;;;;;5070791;28;20175;-71
2022/09/30 02:00:33;;;;;;;0.75;0.50;;;7.90;99.90;;;;;;5070232;28;20036;-71
2022/09/30 02:03:05;;;;;;;0.60;0.40;;;7.90;99.90;;;;;;5051789;28;20131;-71
2022/09/30 02:05:39;;;;;;;0.93;0.52;;;7.80;99.90;;;;;;5071940;28;20083;-71
2022/09/30 02:08:36;;;;;;;3.13;0.63;;;7.80;99.90;;;;;;5083462;27;20115;-71
2022/09/30 02:11:13;;;;;;;1.10;0.60;;;7.80;99.90;;;;;;5072408;28;20052;-71
2022/09/30 02:13:51;;;;;;;0.30;0.30;;;7.70;99.90;;;;;;5044103;28;20039;-71
2022/09/30 02:16:24;;;;;;;1.08;0.75;;;7.80;99.90;;;;;;5058447;28;20499;-71
2022/09/30 02:18:56;;;;;;;1.48;0.57;;;7.70;99.90;;;;;;5072437;28;20035;-71
2022/09/30 02:21:29;;;;;;;1.42;0.55;;;7.70;99.90;;;;;;5061149;28;20554;-71
2022/09/30 02:24:01;;;;;;;0.45;0.30;;;7.70;99.90;;;;;;5071196;28;20044;-71
2022/09/30 02:26:33;;;;;;;1.00;0.50;;;7.60;99.90;;;;;;5059454;28;20713;-71
2022/09/30 02:29:22;;;;;;;0.47;0.30;;;7.60;99.90;;;;;;5086993;27;20445;-71
2022/09/30 02:31:52;;;;;;;0.50;0.43;;;7.60;99.90;;;;;;5032786;28;20028;-71
2022/09/30 02:34:31;;;;;;;0.77;0.45;;;7.60;99.90;;;;;;5061564;28;20047;-71
2022/09/30 02:37:32;;;;;;;0.95;0.50;;;7.50;99.90;;;;;;5044410;28;20041;-71
2022/09/30 02:40:18;;;;;;;1.65;0.80;;;7.50;99.90;;;;;;5062820;28;20040;-71
2022/09/30 02:42:44;;;;;;;1.25;0.65;;;7.40;99.90;;;;;;5069409;28;20621;-71
2022/09/30 02:45:15;;;;;;;0.70;0.47;;;7.50;99.90;;;;;;5058112;28;20045;-71
2022/09/30 02:48:02;;;;;;;1.92;0.82;;;7.50;99.90;;;;;;5061090;28;20518;-71
2022/09/30 02:50:47;;;;;;;2.72;1.33;;;7.50;99.90;;;;;;5056648;28;20874;-72
2022/09/30 02:53:22;;;;;;;1.50;1.00;;;7.50;99.90;;;;;;5051437;28;20060;-71
2022/09/30 02:56:08;;;;;;;3.05;1.25;;;7.50;99.90;;;;;;5064250;28;20393;-71
2022/09/30 02:58:37;;;;;;;3.58;0.98;;;7.50;99.90;;;;;;5067948;28;20041;-71
2022/09/30 03:01:03;;;;;;;2.10;1.33;;;7.60;99.90;;;;;;5058153;28;20599;-71
2022/09/30 03:03:50;;;;;;;1.33;0.75;;;7.70;99.90;;;;;;5081982;28;20041;-71
2022/09/30 03:06:16;;;;;;;0.57;0.40;;;7.60;99.90;;;;;;5069293;28;20032;-71
2022/09/30 03:08:42;;;;;;;0.95;0.60;;;7.60;99.90;;;;;;5085966;28;20047;-71
2022/09/30 03:11:15;;;;;;;0.47;0.40;;;7.50;99.90;;;;;;5053204;28;20040;-71
2022/09/30 03:14:05;;;;;;;3.45;0.90;;;7.50;99.90;;;;;;5088521;28;20040;-71
2022/09/30 03:16:38;;;;;;;3.53;0.70;;;7.50;99.90;;;;;;5033571;28;20048;-71
2022/09/30 03:19:25;;;;;;;1.83;0.95;;;7.50;99.90;;;;;;5047548;28;20047;-71
2022/09/30 03:22:13;;;;;;;1.92;1.23;;;7.50;99.90;;;;;;5055448;28;20045;-71
2022/09/30 03:25:24;;;;;;;0.82;0.60;;;7.50;99.90;;;;;;5068721;28;20106;-71
2022/09/30 03:28:06;;;;;;;1.17;0.52;;;7.50;99.90;;;;;;5059951;28;20109;-71
2022/09/30 03:30:36;;;;;;;1.33;0.80;;;7.50;99.90;;;;;;5050578;28;20049;-71
2022/09/30 03:33:20;;;;;;;1.17;0.50;;;7.50;99.90;;;;;;5072095;28;20067;-71
2022/09/30 03:36:05;;;;;;;0.95;0.45;;;7.40;99.90;;;;;;5062172;28;20036;-71
2022/09/30 03:38:49;;;;;;;0.80;0.50;;;7.40;99.90;;;;;;5065728;28;20146;-71
2022/09/30 03:41:31;;;;;;;1.73;0.70;;;7.40;99.90;;;;;;5061906;28;20409;-71
2022/09/30 03:44:03;;;;;;;0.50;0.40;;;7.40;99.90;;;;;;5066547;28;20693;-71
2022/09/30 03:46:45;;;;;;;0.40;0.30;;;7.30;99.90;;;;;;5059824;28;20068;-72
2022/09/30 03:49:21;;;;;;;0.90;0.60;;;7.30;99.90;;;;;;5075733;28;20168;-71
2022/09/30 03:51:46;;;;;;;;;;;7.30;99.90;;;;;;5064563;28;20038;-71
2022/09/30 03:54:13;;;;;;;0.93;0.70;;;7.30;99.90;;;;;;5071040;28;20000;-71
2022/09/30 03:56:42;;;;;;;1.35;0.70;;;7.30;99.90;;;;;;5037714;28;20067;-71
2022/09/30 03:59:17;;;;;;;0.98;0.60;;;7.20;99.90;;;;;;5069812;28;20048;-71
2022/09/30 04:01:43;;;;;;;0.65;0.43;;;7.20;99.90;;;;;;5060110;28;20114;-71
2022/09/30 04:04:08;;;;;;;0.88;0.50;;;7.10;99.90;;;;;;5074117;28;20502;-71
2022/09/30 04:06:34;;;;;;;1.10;0.60;;;7.10;99.90;;;;;;5064499;28;20052;-71
2022/09/30 04:09:00;;;;;;;1.10;0.57;;;7.10;99.90;;;;;;5071255;28;20085;-71
2022/09/30 04:11:25;;;;;;;1.90;0.90;;;7.10;99.90;;;;;;5059935;28;20135;-71
2022/09/30 04:13:51;;;;;;;1.75;0.75;;;7.10;99.90;;;;;;5072026;28;20037;-71
2022/09/30 04:16:17;;;;;;;0.80;0.60;;;7.10;99.90;;;;;;5094591;27;20489;-71
2022/09/30 04:18:43;;;;;;;1.33;0.85;;;7.10;99.90;;;;;;5065500;28;20118;-71
2022/09/30 04:21:11;;;;;;;1.63;0.70;;;7.10;99.90;;;;;;5091891;27;20064;-71
2022/09/30 04:23:38;;;;;;;1.08;0.55;;;7.10;99.90;;;;;;5064778;28;20075;-71
2022/09/30 04:26:11;;;;;;;1.17;0.80;;;7.10;99.90;;;;;;5058866;28;20053;-71
2022/09/30 04:28:37;;;;;;;1.70;0.68;;;7.00;99.90;;;;;;5062981;28;20559;-71
2022/09/30 04:31:04;;;;;;;1.08;0.70;;;7.00;99.90;;;;;;5065554;28;20029;-71
2022/09/30 04:33:30;;;;;;;1.10;0.70;;;7.00;99.90;;;;;;5048234;28;20032;-71
2022/09/30 04:35:57;;;;;;;2.17;1.40;;;6.90;99.90;;;;;;5060770;28;20032;-71
2022/09/30 04:38:24;;;;;;;1.17;0.65;;;7.00;99.90;;;;;;5067060;28;20040;-71
2022/09/30 04:40:51;;;;;;;2.00;0.90;;;7.00;99.90;;;;;;5040076;28;20040;-71
2022/09/30 04:43:18;;;;;;;1.60;0.70;;;6.90;99.90;;;;;;5034195;28;20060;-71
2022/09/30 04:45:47;;;;;;;3.03;1.55;;;6.90;99.90;;;;;;5062698;28;20059;-71
2022/09/30 04:48:13;;;;;;;1.35;0.90;;;6.90;99.90;;;;;;5062200;28;20118;-71
2022/09/30 04:50:40;;;;;;;1.38;1.02;;;6.80;99.90;;;;;;5067162;28;20150;-71
2022/09/30 04:53:07;;;;;;;1.60;0.98;;;6.80;99.90;;;;;;5043924;28;20075;-71
2022/09/30 04:55:32;;;;;;;2.05;1.08;;;6.80;99.90;;;;;;5059108;28;20144;-71
2022/09/30 04:57:58;;;;;;;3.10;1.67;;;6.80;99.90;;;;;;5067850;28;20043;-71
2022/09/30 05:00:24;;;;;;;2.50;1.48;;;6.80;99.90;;;;;;5069465;28;20140;-71
2022/09/30 05:02:51;;;;;;;2.38;1.30;;;6.80;99.90;;;;;;5059322;28;20029;-71
2022/09/30 05:05:16;;;;;;;2.55;1.38;;;6.90;99.90;;;;;;5066304;28;20036;-71
2022/09/30 05:07:42;;;;;;;3.10;1.85;;;6.90;99.90;;;;;;5045994;28;20101;-71
2022/09/30 05:10:10;;;;;;;2.97;1.95;;;6.90;99.90;;;;;;5093644;27;20120;-71
2022/09/30 05:12:36;;;;;;;2.33;1.35;;;6.90;99.90;;;;;;5055936;28;20041;-71
2022/09/30 05:15:03;;;;;;;6.57;2.53;;;6.90;99.90;;;;;;5069204;28;20067;-71
2022/09/30 05:17:30;;;;;;;4.63;2.45;;;6.90;99.90;;;;;;5057640;28;20041;-71
2022/09/30 05:19:56;;;;;;;2.88;1.65;;;6.90;99.90;;;;;;5072386;28;20121;-71
2022/09/30 05:22:23;;;;;;;4.90;2.38;;;6.90;99.90;;;;;;5056153;28;20119;-71
2022/09/30 05:24:52;;;;;;;4.22;2.72;;;6.90;99.90;;;;;;5061144;28;20050;-71
2022/09/30 05:27:18;;;;;;;4.60;2.05;;;6.90;99.90;;;;;;5064380;28;20036;-71
2022/09/30 05:29:44;;;;;;;2.78;1.50;;;6.90;99.90;;;;;;5063520;28;20064;-71
2022/09/30 05:32:10;;;;;;;2.10;1.10;;;6.90;99.90;;;;;;5054038;28;20525;-71
2022/09/30 05:34:37;;;;;;;4.10;1.65;;;7.00;99.90;;;;;;5068996;28;20040;-71
2022/09/30 05:37:08;;;;;;;2.13;1.35;;;7.00;99.90;;;;;;5076046;28;20143;-71
2022/09/30 05:39:34;;;;;;;1.92;1.08;;;7.00;99.90;;;;;;5060535;28;20044;-71
2022/09/30 05:41:59;;;;;;;1.17;0.88;;;7.00;99.90;;;;;;5073690;28;20032;-72
2022/09/30 05:44:25;;;;;;;2.50;1.38;;;7.00;99.90;;;;;;5070037;28;20119;-71
2022/09/30 05:46:51;;;;;;;2.05;1.05;;;7.00;99.90;;;;;;5087656;27;20052;-71
2022/09/30 05:49:17;;;;;;;2.15;1.13;;;7.10;99.90;;;;;;5045784;28;20047;-72
2022/09/30 05:51:42;;;;;;;1.95;1.10;;;7.10;99.90;;;;;;5069567;28;20055;-71
2022/09/30 05:54:10;;;;;;;1.75;0.98;;;7.00;99.90;;;;;;5071076;28;20052;-71
2022/09/30 05:56:37;;;;;;;1.95;0.90;;;6.90;99.90;;;;;;5073990;28;20044;-72
2022/09/30 05:59:03;;;;;;;3.03;1.40;;;6.90;99.90;;;;;;5038147;28;20037;-72
2022/09/30 06:01:29;;;;;;;1.48;0.80;;;6.90;99.90;;;;;;5083226;28;20066;-71
2022/09/30 06:03:55;;;;;;;2.42;1.50;;;6.80;99.90;;;;;;5058250;28;20510;-71
2022/09/30 06:06:20;;;;;;;2.50;1.63;;;6.80;99.90;;;;;;5065618;28;20425;-71
2022/09/30 06:08:46;;;;;;;1.80;1.38;;;6.80;99.90;;;;;;5061471;28;20032;-72
2022/09/30 06:11:15;;;;;;;2.42;1.33;;;6.80;99.90;;;;;;5096454;27;20075;-71
2022/09/30 06:13:42;;;;;;;2.30;1.40;;;6.90;99.90;;;;;;5052713;28;20040;-71
2022/09/30 06:16:09;;;;;;;2.42;1.63;;;6.90;99.90;;;;;;5070482;28;20084;-72
2022/09/30 06:18:38;;;;;;;2.75;1.65;;;6.90;99.90;;;;;;5049760;28;20889;-72
2022/09/30 06:21:04;;;;;;;4.03;1.88;;;6.90;99.90;;;;;;5071419;28;20060;-71
2022/09/30 06:23:33;;;;;;;2.95;1.58;;;7.00;99.90;;;;;;5060329;28;20553;-70
2022/09/30 06:26:00;;;;;;;2.47;1.50;;;7.00;99.90;;;;;;5065662;28;20044;-71
2022/09/30 06:28:26;;;;;;;3.25;1.65;;;7.00;99.90;;;;;;5058392;28;20487;-71
2022/09/30 06:30:52;;;;;;;3.83;2.05;;;7.10;99.90;;;;;;5048032;28;20074;-72
2022/09/30 06:33:19;;;;;;;3.30;2.15;;;7.10;99.90;;;;;;5073325;28;20066;-71
2022/09/30 06:35:46;;;;;;;4.85;2.50;;;7.00;99.90;;;;;;5064810;28;20032;-71
2022/09/30 06:38:14;;;;;;;3.97;1.90;;;7.10;99.90;;;;;;5049869;28;20040;-72
2022/09/30 06:40:41;;;;;;;4.15;2.72;;;7.10;99.90;;;;;;5090859;27;20059;-72
2022/09/30 06:43:07;;;;;;;5.63;2.22;;;7.10;99.90;;;;;;5064409;28;20041;-71
2022/09/30 06:45:35;;;;;;;4.25;2.55;;;7.20;99.90;;;;;;5052954;28;20051;-71
2022/09/30 06:48:04;;;;;;;4.85;2.35;;;7.20;99.90;;;;;;5068311;28;20048;-72
2022/09/30 06:50:30;;;;;;;5.47;3.15;;;7.30;99.90;;;;;;5066255;28;20039;-72
2022/09/30 06:53:00;;;;;;;4.03;2.30;;;7.30;99.90;;;;;;5071961;28;20061;-72
2022/09/30 06:55:27;;;;;;;5.40;3.20;;;7.40;99.90;;;;;;5070113;28;20036;-72
2022/09/30 06:57:54;;;;;;;6.82;3.13;;;7.40;99.90;;;;;;5064555;28;20046;-72
2022/09/30 07:00:21;;;;;;;4.60;2.85;;;7.40;99.90;;;;;;5058864;28;20421;-72
2022/09/30 07:02:47;;;;;;;4.32;3.08;;;7.50;99.90;;;;;;5071417;28;20093;-72
2022/09/30 07:05:14;;;;;;;9.23;3.67;;;7.50;99.90;;;;;;5046664;28;20041;-72
2022/09/30 07:07:41;;;;;;;5.93;3.40;;;7.60;99.90;;;;;;5079514;28;20045;-72
2022/09/30 07:10:07;;;;;;;6.13;3.28;;;7.60;99.90;;;;;;5069647;28;20119;-72
2022/09/30 07:12:33;;;;;;;6.60;3.75;;;7.70;99.90;;;;;;5053874;28;20145;-72
2022/09/30 07:14:59;;;;;;;5.20;3.38;;;7.80;99.90;;;;;;5057982;28;20481;-72
2022/09/30 07:17:28;;;;;;;8.57;3.85;;;7.80;99.90;;;;;;5066391;28;20047;-72
2022/09/30 07:19:54;;;;;;;5.35;2.95;;;7.80;99.90;;;;;;5088456;28;20041;-71
2022/09/30 07:22:27;;;;;;;7.38;3.28;;;8.00;99.90;;;;;;5063519;28;20050;-71
2022/09/30 07:24:53;;;;;;;7.90;4.03;;;8.00;99.90;;;;;;5069700;28;20094;-71
2022/09/30 07:27:19;;;;;;;8.05;3.70;;;8.10;99.90;;;;;;5050611;28;20505;-71
2022/09/30 07:29:46;;;;;;;9.27;4.22;;;8.20;99.90;;;;;;5057904;28;20043;-71
2022/09/30 07:32:12;;;;;;;8.65;4.07;;;8.20;99.90;;;;;;5058774;28;20035;-71
2022/09/30 07:34:41;;;;;;;5.70;3.08;;;8.30;99.90;;;;;;5063486;28;20407;-71
2022/09/30 07:37:08;;;;;;;7.28;4.35;;;8.30;99.90;;;;;;5069769;28;20060;-71
2022/09/30 07:39:35;;;;;;;9.23;4.53;;;8.30;99.90;;;;;;5072655;28;20520;-71
2022/09/30 07:42:01;;;;;;;5.95;3.25;;;8.40;99.90;;;;;;5055653;28;20063;-71
2022/09/30 07:44:28;;;;;;;8.00;3.55;;;8.40;99.90;;;;;;5071467;28;20582;-71
2022/09/30 07:46:53;;;;;;;7.88;3.83;;;8.50;99.90;;;;;;5055367;28;20087;-71
2022/09/30 07:49:26;;;;;;;8.10;4.28;;;8.50;99.90;;;;;;5036475;28;22343;-71
2022/09/30 07:51:54;;;;;;;7.05;3.47;;;8.60;99.90;;;;;;5074104;28;20036;-71
2022/09/30 07:54:24;;;;;;;10.85;3.67;;;8.60;99.90;;;;;;5070825;28;20112;-71
2022/09/30 07:56:51;;;;;;;6.50;3.15;;;8.70;99.90;;;;;;5064913;28;20117;-71
2022/09/30 07:59:18;;;;;;;6.55;3.60;;;8.70;99.90;;;;;;5075921;28;20210;-71
2022/09/30 08:01:44;;;;;;;7.93;3.75;;;8.80;99.90;;;;;;5044892;28;20387;-71
2022/09/30 08:04:11;;;;;;;8.57;3.60;;;8.80;99.90;;;;;;5072272;28;20032;-72
2022/09/30 08:06:45;;;;;;;6.97;3.92;;;8.80;99.90;;;;;;5065732;28;20043;-72
2022/09/30 08:09:11;;;;;;;6.28;2.90;;;8.90;99.90;;;;;;5071640;28;20393;-72
2022/09/30 08:11:38;;;;;;;7.90;3.42;;;8.90;99.90;;;;;;5050285;28;20388;-71
2022/09/30 08:14:04;;;;;;;8.13;3.88;;;9.00;99.90;;;;;;5059419;28;20109;-72
2022/09/30 08:16:30;;;;;;;10.90;3.58;;;9.00;99.90;;;;;;5045981;28;20032;-75
2022/09/30 08:19:00;;;;;;;6.40;3.40;;;9.10;99.90;;;;;;5061817;28;20029;-70
2022/09/30 08:21:27;;;;;;;9.23;4.00;;;9.20;99.90;;;;;;5054696;28;20418;-71
2022/09/30 08:23:52;;;;;;;7.13;3.38;;;9.20;99.90;;;;;;5071901;28;20427;-71
2022/09/30 08:26:18;;;;;;;8.95;3.20;;;9.30;99.90;;;;;;5062901;28;20048;-71
2022/09/30 08:28:47;;;;;;;8.45;3.92;;;9.30;99.90;;;;;;5045633;28;20044;-71
2022/09/30 08:31:17;;;;;;;7.93;3.53;;;9.40;99.90;;;;;;5065568;28;20036;-70
2022/09/30 08:33:43;;;;;;;5.85;3.20;;;9.40;99.90;;;;;;5095107;27;20036;-72
2022/09/30 08:36:29;;;;;;;8.40;3.85;;;9.50;99.90;;;;;;5055656;28;20494;-72
2022/09/30 08:38:55;;;;;;;7.63;3.13;;;9.60;99.90;;;;;;5051931;28;20056;-72
2022/09/30 08:41:45;;;;;;;6.93;2.80;;;9.60;99.90;;;;;;5052759;28;20545;-72
2022/09/30 08:44:31;;;;;;;6.00;2.83;;;9.70;99.90;;;;;;5052288;28;20048;-72
2022/09/30 08:47:29;;;;;;;8.65;3.20;;;9.80;99.90;;;;;;5062489;28;20041;-72
2022/09/30 08:50:13;;;;;;;7.32;3.22;;;9.80;99.90;;;;;;5086737;28;20090;-72
2022/09/30 08:52:46;;;;;;;6.15;3.58;;;9.90;99.90;;;;;;5093275;27;20036;-72
2022/09/30 08:55:20;;;;;;;13.82;3.85;;;9.90;99.90;;;;;;5066525;28;20032;-71
2022/09/30 08:57:46;;;;;;;6.85;2.97;;;10.10;99.90;;;;;;5053842;28;20398;-70
2022/09/30 09:00:15;;;;;;;6.82;3.15;;;10.20;99.90;;;;;;5055478;28;20044;-70
2022/09/30 09:02:54;;;;;;;6.13;2.85;;;10.20;99.90;;;;;;5069248;28;20487;-70
2022/09/30 09:06:00;;;;;;;6.13;2.92;;;10.30;99.90;;;;;;5041282;28;20048;-70
2022/09/30 09:08:57;;;;;;;8.93;3.78;;;10.40;99.90;;;;;;5087566;27;20068;-70
2022/09/30 09:11:29;;;;;;;4.90;2.95;;;10.40;99.90;;;;;;5048671;28;20064;-71
2022/09/30 09:14:27;;;;;;;9.50;3.72;;;10.50;99.90;;;;;;5052797;28;20032;-66
2022/09/30 09:17:11;;;;;;;9.95;3.55;;;10.50;99.90;;;;;;5082258;27;20052;-68
2022/09/30 09:20:01;;;;;;;10.30;3.53;;;10.50;99.90;;;;;;5034079;28;20494;-69
2022/09/30 09:22:29;;;;;;;9.68;4.38;;;10.50;99.90;;;;;;5068477;28;21824;-71
2022/09/30 09:24:55;;;;;;;9.07;3.70;;;10.60;99.90;;;;;;5053795;28;20144;-69
2022/09/30 09:27:42;;;;;;;6.65;3.00;;;10.60;99.90;;;;;;5093065;27;20098;-74
2022/09/30 09:30:10;;;;;;;5.90;2.80;;;10.60;99.90;;;;;;5037173;28;20033;-73
2022/09/30 09:32:36;;;;;;;5.90;3.03;;;10.70;99.90;;;;;;5066020;28;20445;-72
2022/09/30 09:35:15;;;;;;;6.85;2.88;;;10.80;99.90;;;;;;5090470;27;20043;-72
2022/09/30 09:38:24;;;;;;;7.15;2.92;;;10.80;99.90;;;;;;5061516;28;20340;-72
2022/09/30 09:41:09;;;;;;;5.97;2.90;;;10.90;99.90;;;;;;5054031;28;20085;-72
2022/09/30 09:43:59;;;;;;;5.32;2.38;;;10.90;99.90;;;;;;5067779;28;21431;-72
2022/09/30 09:46:28;;;;;;;5.35;2.60;;;11.00;99.90;;;;;;5055867;28;20044;-73
2022/09/30 09:49:19;;;;;;;6.40;3.15;;;11.10;99.90;;;;;;5063124;28;21907;-73
2022/09/30 09:51:55;;;;;;;4.97;2.60;;;11.30;99.90;;;;;;5054649;28;20051;-73
2022/09/30 09:54:21;;;;;;;4.00;2.38;;;11.40;99.90;;;;;;5068028;28;20036;-73
2022/09/30 09:56:49;;;;;;;4.22;2.13;;;11.40;99.90;;;;;;5060697;28;20044;-73
2022/09/30 09:59:16;;;;;;;3.58;2.20;;;11.50;99.90;;;;;;5048533;28;20401;-72
2022/09/30 10:01:49;;;;;;;7.88;3.03;;;11.60;99.90;;;;;;5050205;28;20036;-72
2022/09/30 10:04:24;;;;;;;4.60;2.22;;;11.70;99.90;;;;;;5050978;28;20522;-72
2022/09/30 10:06:54;;;;;;;4.18;2.55;;;11.70;99.90;;;;;;5063836;28;20047;-72
2022/09/30 10:09:35;;;;;;;3.67;2.10;;;11.80;99.90;;;;;;5067628;28;20051;-72
2022/09/30 10:12:04;;;;;;;6.15;2.10;;;11.90;99.90;;;;;;5061293;28;20041;-72
2022/09/30 10:14:30;;;;;;;4.57;2.20;;;12.00;99.90;;;;;;5047358;28;20040;-73
2022/09/30 10:17:18;;;;;;;2.78;1.20;;;12.10;99.90;;;;;;5063573;28;20044;-73
2022/09/30 10:19:50;;;;;;;2.97;1.45;;;12.20;99.90;;;;;;5053661;28;20044;-73
2022/09/30 10:22:16;;;;;;;2.97;1.73;;;12.20;99.90;;;;;;5052512;28;20647;-73
2022/09/30 10:24:42;;;;;;;3.47;1.13;;;12.30;99.90;;;;;;5056971;28;22529;-73
2022/09/30 10:27:33;;;;;;;2.95;1.55;;;12.30;99.90;;;;;;5088242;28;20044;-73
2022/09/30 10:29:59;;;;;;;1.92;1.10;;;12.30;99.90;;;;;;5064124;28;20047;-73
2022/09/30 10:32:26;;;;;;;3.33;2.03;;;12.30;99.90;;;;;;5050142;28;20053;-73
2022/09/30 10:35:01;;;;;;;3.63;1.98;;;12.30;99.90;;;;;;5068032;28;20044;-72
2022/09/30 10:37:26;;;;;;;1.90;1.23;;;12.40;99.90;;;;;;5053564;28;20049;-73
2022/09/30 10:40:00;;;;;;;3.92;2.40;;;12.40;99.90;;;;;;5053405;28;20047;-74
2022/09/30 10:42:37;;;;;;;3.28;1.73;;;12.30;99.90;;;;;;5073137;28;20111;-73
2022/09/30 10:45:17;;;;;;;4.15;1.80;;;12.30;99.90;;;;;;5057231;28;20032;-73
2022/09/30 10:47:45;;;;;;;3.40;2.05;;;12.40;99.90;;;;;;5057240;28;20045;-73
2022/09/30 10:50:16;;;;;;;4.10;2.53;;;12.40;99.90;;;;;;5073470;28;20108;-73
2022/09/30 10:52:56;;;;;;;4.18;1.80;;;12.40;99.90;;;;;;5061762;28;20546;-73
2022/09/30 10:55:41;;;;;;;3.35;1.70;;;12.40;99.90;;;;;;5054085;28;20043;-72
2022/09/30 10:58:28;;;;;;;3.60;2.13;;;12.50;99.90;;;;;;5073973;28;20093;-73
2022/09/30 11:01:10;;;;;;;4.72;2.00;;;12.60;99.90;;;;;;5053842;28;20485;-75
2022/09/30 11:03:56;;;;;;;5.63;2.45;;;12.70;99.90;;;;;;5068946;28;20136;-73
2022/09/30 11:06:23;;;;;;;3.83;1.92;;;12.80;99.90;;;;;;5085737;28;20470;-73
2022/09/30 11:08:55;;;;;;;4.97;2.60;;;12.80;99.90;;;;;;5073164;28;20045;-73
2022/09/30 11:11:26;;;;;;;3.72;2.25;;;12.90;99.90;;;;;;5057819;28;20514;-73
2022/09/30 11:14:00;;;;;;;4.55;2.30;;;13.00;99.90;;;;;;5048618;28;20037;-73
2022/09/30 11:16:48;;;;;;;3.83;2.08;;;13.00;99.90;;;;;;5059672;28;20032;-73
2022/09/30 11:19:36;;;;;;;3.58;2.05;;;13.00;99.90;;;;;;5078076;28;20609;-74
2022/09/30 11:22:08;;;;;;;3.83;1.88;;;12.90;99.90;;;;;;5060944;28;20090;-74
2022/09/30 11:24:40;;;;;;;3.58;1.80;;;12.90;99.90;;;;;;5065090;28;20053;-73
2022/09/30 11:27:39;;;;;;;3.22;2.05;;;13.00;99.90;;;;;;5080468;28;20045;-73
2022/09/30 11:30:17;;;;;;;3.10;1.58;;;13.10;99.90;;;;;;5060258;28;20445;-73
2022/09/30 11:33:11;;;;;;;3.90;1.80;;;13.20;99.90;;;;;;5059879;28;20060;-74
2022/09/30 11:35:50;;;;;;;2.35;1.27;;;13.20;99.90;;;;;;5049347;28;20060;-74
2022/09/30 11:38:18;;;;;;;2.67;1.60;;;13.30;99.90;;;;;;5053937;28;20067;-73
2022/09/30 11:41:30;;;;;;;3.30;1.50;;;13.30;99.90;;;;;;5059990;28;20047;-74
2022/09/30 11:44:19;;;;;;;2.88;1.60;;;13.30;99.90;;;;;;5059373;28;20052;-74
2022/09/30 11:47:04;;;;;;;2.75;1.55;;;13.40;99.90;;;;;;5066702;28;20072;-74
2022/09/30 11:49:53;;;;;;;2.57;1.27;;;13.40;99.90;;;;;;5054820;28;20036;-74
2022/09/30 11:52:21;;;;;;;2.83;1.52;;;13.40;99.90;;;;;;5073735;28;20062;-73
2022/09/30 11:54:53;;;;;;;2.92;1.33;;;13.40;99.90;;;;;;5057829;28;20044;-74
2022/09/30 11:57:31;;;;;;;3.03;1.40;;;13.50;99.90;;;;;;5076289;28;20033;-74
2022/09/30 12:00:26;;;;;;;1.80;1.10;;;13.50;99.90;;;;;;5061331;28;20094;-74
2022/09/30 12:02:55;;;;;;;2.97;1.10;;;13.50;99.90;;;;;;5045440;28;20045;-73
2022/09/30 12:05:35;;;;;;;1.65;0.70;;;13.50;99.90;;;;;;5098202;27;20052;-74
2022/09/30 12:08:13;;;;;;;2.10;0.93;;;13.50;99.90;;;;;;5060692;28;20158;-74
2022/09/30 12:11:00;;;;;;;3.42;1.65;;;13.50;99.90;;;;;;5062270;28;20041;-74
2022/09/30 12:13:37;;;;;;;2.60;1.50;;;13.50;99.90;;;;;;5060414;28;20041;-74
2022/09/30 12:16:06;;;;;;;2.72;1.50;;;13.60;99.90;;;;;;5077050;28;20040;-74
2022/09/30 12:18:50;;;;;;;3.42;1.45;;;13.60;99.90;;;;;;5054545;28;20319;-74
2022/09/30 12:21:34;;;;;;;5.40;1.50;;;13.60;99.90;;;;;;5058903;28;20048;-74
2022/09/30 12:24:10;;;;;;;2.58;1.40;;;13.60;99.90;;;;;;5058504;28;20556;-74
2022/09/30 12:26:39;;;;;;;3.50;2.08;;;13.60;99.90;;;;;;5056421;28;20528;-73
2022/09/30 12:32:27;;;;;;;2.95;1.88;;;13.70;99.90;;;;;;5073929;28;21202;-73
2022/09/30 12:35:28;;;;;;;6.43;2.25;;;13.70;99.90;;;;;;5093285;27;20128;-73
2022/09/30 12:38:13;;;;;;;3.63;2.05;;;13.60;99.90;;;;;;5083422;28;20062;-73
2022/09/30 12:41:06;;;;;;;3.53;2.05;;;13.60;99.90;;;;;;5079500;28;20048;-73
2022/09/30 12:43:51;;;;;;;5.45;2.33;;;13.70;99.90;;;;;;5063189;28;20046;-74
2022/09/30 12:46:28;;;;;;;4.07;2.40;;;13.70;99.90;;;;;;5069933;28;20039;-74
2022/09/30 12:49:03;;;;;;;3.05;1.52;;;13.80;99.90;;;;;;5066022;28;20038;-74
2022/09/30 12:51:33;;;;;;;5.07;2.67;;;13.80;99.90;;;;;;5061210;28;20047;-74
2022/09/30 12:54:05;;;;;;;7.47;3.22;;;13.80;99.90;;;;;;5090116;28;20052;-74
2022/09/30 12:56:32;;;;;;;5.32;2.85;;;13.90;99.90;;;;;;5089801;28;20094;-74
2022/09/30 12:58:59;;;;;;;5.57;3.17;;;14.00;99.90;;;;;;5064967;28;20036;-74
2022/09/30 13:01:35;;;;;;;6.47;3.05;;;14.00;99.90;;;;;;5060753;28;20362;-74
2022/09/30 13:04:00;;;;;;;6.28;3.60;;;14.00;99.90;;;;;;5060122;28;20075;-74
2022/09/30 13:06:46;;;;;;;7.78;3.10;;;13.90;99.90;;;;;;5053220;28;20049;-74
2022/09/30 13:09:36;;;;;;;5.43;2.90;;;13.80;99.90;;;;;;5040699;28;20037;-74
2022/09/30 13:12:01;;;;;;;5.20;3.03;;;13.90;99.90;;;;;;5061102;28;20037;-73
2022/09/30 13:14:36;;;;;;;4.90;3.10;;;14.10;99.90;;;;;;5061344;28;20041;-73
2022/09/30 13:17:08;;;;;;;4.68;3.15;;;14.10;99.90;;;;;;5069399;28;20036;-73
2022/09/30 13:19:41;;;;;;;6.05;3.38;;;14.20;99.90;;;;;;5076427;28;20059;-73
2022/09/30 13:22:19;;;;;;;5.38;3.33;;;14.20;99.90;;;;;;5074553;28;20090;-73
2022/09/30 13:24:57;;;;;;;7.55;3.25;;;14.20;99.90;;;;;;5056031;28;20059;-74
2022/09/30 13:27:52;;;;;;;6.90;2.92;;;14.20;99.90;;;;;;5087565;28;20741;-74
2022/09/30 13:30:18;;;;;;;6.75;3.95;;;14.20;99.90;;;;;;5064586;28;20040;-74